sensor_id;sensor_type;location;lat;lon;timestamp;temperature;humidity
45115;DHT22;30877;43.706;10.780;2024-03-06T00:01:24;12.90;96.70
45115;DHT22;30877;43.706;10.780;2024-03-06T00:03:53;12.90;96.70
45115;DHT22;30877;43.706;10.780;2024-03-06T00:06:22;12.90;96.70
45115;DHT22;30877;43.706;10.780;2024-03-06T00:08:51;12.90;96.70
45115;DHT22;30877;43.706;10.780;2024-03-06T00:11:20;12.90;96.70
45115;DHT22;30877;43.706;10.780;2024-03-06T00:13:50;12.80;96.70
45115;DHT22;30877;43.706;10.780;2024-03-06T00:16:19;12.80;96.70
45115;DHT22;30877;43.706;10.780;2024-03-06T00:18:50;12.80;96.70
45115;DHT22;30877;43.706;10.780;2024-03-06T00:21:19;12.80;96.70
45115;DHT22;30877;43.706;10.780;2024-03-06T00:23:48;12.70;96.70
45115;DHT22;30877;43.706;10.780;2024-03-06T00:26:17;12.70;96.70
45115;DHT22;30877;43.706;10.780;2024-03-06T00:28:45;12.70;96.70
45115;DHT22;30877;43.706;10.780;2024-03-06T00:31:15;12.60;96.70
45115;DHT22;30877;43.706;10.780;2024-03-06T00:33:44;12.60;96.70
45115;DHT22;30877;43.706;10.780;2024-03-06T00:36:14;12.60;96.70
45115;DHT22;30877;43.706;10.780;2024-03-06T00:38:43;12.60;96.70
45115;DHT22;30877;43.706;10.780;2024-03-06T00:41:12;12.60;96.70
45115;DHT22;30877;43.706;10.780;2024-03-06T00:43:41;12.60;96.70
45115;DHT22;30877;43.706;10.780;2024-03-06T00:46:10;12.60;96.70
45115;DHT22;30877;43.706;10.780;2024-03-06T00:48:38;12.60;96.70
45115;DHT22;30877;43.706;10.780;2024-03-06T00:51:08;12.60;96.70
45115;DHT22;30877;43.706;10.780;2024-03-06T00:53:39;12.60;96.70
45115;DHT22;30877;43.706;10.780;2024-03-06T00:56:08;12.70;96.70
45115;DHT22;30877;43.706;10.780;2024-03-06T00:58:37;12.70;96.70
45115;DHT22;30877;43.706;10.780;2024-03-06T01:01:06;12.70;96.70
45115;DHT22;30877;43.706;10.780;2024-03-06T01:03:37;12.70;96.70
45115;DHT22;30877;43.706;10.780;2024-03-06T01:06:06;12.70;96.70
45115;DHT22;30877;43.706;10.780;2024-03-06T01:08:35;12.70;96.70
45115;DHT22;30877;43.706;10.780;2024-03-06T01:11:06;12.70;96.70
45115;DHT22;30877;43.706;10.780;2024-03-06T01:13:35;12.70;96.70
45115;DHT22;30877;43.706;10.780;2024-03-06T01:16:04;12.60;96.70
45115;DHT22;30877;43.706;10.780;2024-03-06T01:18:34;12.60;96.70
45115;DHT22;30877;43.706;10.780;2024-03-06T01:21:02;12.60;96.70
45115;DHT22;30877;43.706;10.780;2024-03-06T01:23:31;12.60;96.70
45115;DHT22;30877;43.706;10.780;2024-03-06T01:26:01;12.60;96.70
45115;DHT22;30877;43.706;10.780;2024-03-06T01:28:32;12.60;96.70
45115;DHT22;30877;43.706;10.780;2024-03-06T01:31:01;12.60;96.70
45115;DHT22;30877;43.706;10.780;2024-03-06T01:33:30;12.50;96.70
45115;DHT22;30877;43.706;10.780;2024-03-06T01:35:59;12.60;96.70
45115;DHT22;30877;43.706;10.780;2024-03-06T01:38:28;12.50;96.70
45115;DHT22;30877;43.706;10.780;2024-03-06T01:40:57;12.60;96.70
45115;DHT22;30877;43.706;10.780;2024-03-06T01:43:26;12.60;96.70
45115;DHT22;30877;43.706;10.780;2024-03-06T01:45:56;12.60;96.70
45115;DHT22;30877;43.706;10.780;2024-03-06T01:48:28;12.60;96.70
45115;DHT22;30877;43.706;10.780;2024-03-06T01:51:00;12.60;96.70
45115;DHT22;30877;43.706;10.780;2024-03-06T01:53:31;12.60;96.70
45115;DHT22;30877;43.706;10.780;2024-03-06T01:56:00;12.60;96.70
45115;DHT22;30877;43.706;10.780;2024-03-06T01:58:30;12.50;96.70
45115;DHT22;30877;43.706;10.780;2024-03-06T02:01:01;12.50;96.70
45115;DHT22;30877;43.706;10.780;2024-03-06T02:03:31;12.40;96.70
45115;DHT22;30877;43.706;10.780;2024-03-06T02:06:00;12.40;96.70
45115;DHT22;30877;43.706;10.780;2024-03-06T02:08:31;12.30;96.70
45115;DHT22;30877;43.706;10.780;2024-03-06T02:11:00;12.40;96.70
45115;DHT22;30877;43.706;10.780;2024-03-06T02:13:31;12.40;96.70
45115;DHT22;30877;43.706;10.780;2024-03-06T02:16:02;12.30;96.70
45115;DHT22;30877;43.706;10.780;2024-03-06T02:18:31;12.40;96.70
45115;DHT22;30877;43.706;10.780;2024-03-06T02:21:02;12.40;96.70
45115;DHT22;30877;43.706;10.780;2024-03-06T02:23:30;12.40;96.70
45115;DHT22;30877;43.706;10.780;2024-03-06T02:26:00;12.40;96.70
45115;DHT22;30877;43.706;10.780;2024-03-06T02:28:30;12.30;96.70
45115;DHT22;30877;43.706;10.780;2024-03-06T02:31:00;12.30;96.70
45115;DHT22;30877;43.706;10.780;2024-03-06T02:33:29;12.20;96.70
45115;DHT22;30877;43.706;10.780;2024-03-06T02:35:57;12.20;96.70
45115;DHT22;30877;43.706;10.780;2024-03-06T02:38:28;12.20;96.70
45115;DHT22;30877;43.706;10.780;2024-03-06T02:40:57;12.20;96.70
45115;DHT22;30877;43.706;10.780;2024-03-06T02:43:26;12.20;96.70
45115;DHT22;30877;43.706;10.780;2024-03-06T02:45:56;12.30;96.70
45115;DHT22;30877;43.706;10.780;2024-03-06T02:48:25;12.30;96.70
45115;DHT22;30877;43.706;10.780;2024-03-06T02:50:57;12.30;96.70
45115;DHT22;30877;43.706;10.780;2024-03-06T02:53:27;12.30;96.70
45115;DHT22;30877;43.706;10.780;2024-03-06T02:55:57;12.40;96.70
45115;DHT22;30877;43.706;10.780;2024-03-06T02:58:27;12.40;96.70
45115;DHT22;30877;43.706;10.780;2024-03-06T03:01:00;12.40;96.70
45115;DHT22;30877;43.706;10.780;2024-03-06T03:03:28;12.30;96.70
45115;DHT22;30877;43.706;10.780;2024-03-06T03:05:58;12.20;96.70
45115;DHT22;30877;43.706;10.780;2024-03-06T03:08:29;12.20;96.70
45115;DHT22;30877;43.706;10.780;2024-03-06T03:10:57;12.10;96.70
45115;DHT22;30877;43.706;10.780;2024-03-06T03:13:27;12.10;96.70
45115;DHT22;30877;43.706;10.780;2024-03-06T03:15:55;12.10;96.70
45115;DHT22;30877;43.706;10.780;2024-03-06T03:18:24;12.20;96.70
45115;DHT22;30877;43.706;10.780;2024-03-06T03:20:53;12.20;96.70
45115;DHT22;30877;43.706;10.780;2024-03-06T03:23:22;12.10;96.70
45115;DHT22;30877;43.706;10.780;2024-03-06T03:25:53;12.10;96.70
45115;DHT22;30877;43.706;10.780;2024-03-06T03:28:22;12.10;96.70
45115;DHT22;30877;43.706;10.780;2024-03-06T03:30:50;12.10;96.70
45115;DHT22;30877;43.706;10.780;2024-03-06T03:33:19;12.00;96.70
45115;DHT22;30877;43.706;10.780;2024-03-06T03:35:48;12.00;96.70
45115;DHT22;30877;43.706;10.780;2024-03-06T03:38:17;12.10;96.70
45115;DHT22;30877;43.706;10.780;2024-03-06T03:40:47;12.10;96.70
45115;DHT22;30877;43.706;10.780;2024-03-06T03:43:17;12.10;96.70
45115;DHT22;30877;43.706;10.780;2024-03-06T03:45:45;12.10;96.70
45115;DHT22;30877;43.706;10.780;2024-03-06T03:48:16;12.10;96.70
45115;DHT22;30877;43.706;10.780;2024-03-06T03:50:45;12.10;96.70
45115;DHT22;30877;43.706;10.780;2024-03-06T03:53:13;12.10;96.70
45115;DHT22;30877;43.706;10.780;2024-03-06T03:55:43;12.10;96.70
45115;DHT22;30877;43.706;10.780;2024-03-06T03:58:12;12.10;96.70
45115;DHT22;30877;43.706;10.780;2024-03-06T04:00:42;12.10;96.70
45115;DHT22;30877;43.706;10.780;2024-03-06T04:03:11;12.10;96.70
45115;DHT22;30877;43.706;10.780;2024-03-06T04:05:42;12.00;96.70
45115;DHT22;30877;43.706;10.780;2024-03-06T04:08:11;12.00;96.70
45115;DHT22;30877;43.706;10.780;2024-03-06T04:10:42;12.00;96.70
45115;DHT22;30877;43.706;10.780;2024-03-06T04:13:10;11.90;96.70
45115;DHT22;30877;43.706;10.780;2024-03-06T04:15:41;11.80;96.70
45115;DHT22;30877;43.706;10.780;2024-03-06T04:18:10;11.80;96.70
45115;DHT22;30877;43.706;10.780;2024-03-06T04:20:40;11.80;96.70
45115;DHT22;30877;43.706;10.780;2024-03-06T04:23:09;11.80;96.70
45115;DHT22;30877;43.706;10.780;2024-03-06T04:25:39;11.80;96.70
45115;DHT22;30877;43.706;10.780;2024-03-06T04:28:09;11.80;96.70
45115;DHT22;30877;43.706;10.780;2024-03-06T04:30:38;11.70;96.70
45115;DHT22;30877;43.706;10.780;2024-03-06T04:33:09;11.70;96.70
45115;DHT22;30877;43.706;10.780;2024-03-06T04:35:42;11.60;96.70
45115;DHT22;30877;43.706;10.780;2024-03-06T04:38:11;11.50;96.70
45115;DHT22;30877;43.706;10.780;2024-03-06T04:40:40;11.50;96.70
45115;DHT22;30877;43.706;10.780;2024-03-06T04:43:09;11.50;96.70
45115;DHT22;30877;43.706;10.780;2024-03-06T04:45:38;11.50;96.70
45115;DHT22;30877;43.706;10.780;2024-03-06T04:48:09;11.50;96.70
45115;DHT22;30877;43.706;10.780;2024-03-06T04:50:38;11.50;96.70
45115;DHT22;30877;43.706;10.780;2024-03-06T04:53:07;11.50;96.70
45115;DHT22;30877;43.706;10.780;2024-03-06T04:55:36;11.50;96.70
45115;DHT22;30877;43.706;10.780;2024-03-06T04:58:05;11.50;96.70
45115;DHT22;30877;43.706;10.780;2024-03-06T05:00:34;11.40;96.70
45115;DHT22;30877;43.706;10.780;2024-03-06T05:03:03;11.40;96.70
45115;DHT22;30877;43.706;10.780;2024-03-06T05:05:50;11.40;96.70
45115;DHT22;30877;43.706;10.780;2024-03-06T05:08:36;11.40;96.70
45115;DHT22;30877;43.706;10.780;2024-03-06T05:11:23;11.40;96.70
45115;DHT22;30877;43.706;10.780;2024-03-06T05:14:09;11.40;96.70
45115;DHT22;30877;43.706;10.780;2024-03-06T05:16:55;11.40;96.70
45115;DHT22;30877;43.706;10.780;2024-03-06T05:19:42;11.40;96.70
45115;DHT22;30877;43.706;10.780;2024-03-06T05:22:29;11.30;96.70
45115;DHT22;30877;43.706;10.780;2024-03-06T05:25:15;11.20;96.70
45115;DHT22;30877;43.706;10.780;2024-03-06T05:28:01;11.20;96.70
45115;DHT22;30877;43.706;10.780;2024-03-06T05:30:48;11.10;96.70
45115;DHT22;30877;43.706;10.780;2024-03-06T05:33:36;11.10;96.70
45115;DHT22;30877;43.706;10.780;2024-03-06T05:36:21;11.10;96.70
45115;DHT22;30877;43.706;10.780;2024-03-06T05:39:08;11.10;96.70
45115;DHT22;30877;43.706;10.780;2024-03-06T05:42:00;11.10;96.70
45115;DHT22;30877;43.706;10.780;2024-03-06T05:44:48;11.00;96.70
45115;DHT22;30877;43.706;10.780;2024-03-06T05:47:35;11.00;96.70
45115;DHT22;30877;43.706;10.780;2024-03-06T05:50:20;11.10;96.70
45115;DHT22;30877;43.706;10.780;2024-03-06T05:53:08;11.10;96.70
45115;DHT22;30877;43.706;10.780;2024-03-06T05:55:55;11.10;96.70
45115;DHT22;30877;43.706;10.780;2024-03-06T05:58:41;11.00;96.70
45115;DHT22;30877;43.706;10.780;2024-03-06T06:01:10;11.00;96.70
45115;DHT22;30877;43.706;10.780;2024-03-06T06:03:39;11.00;96.70
45115;DHT22;30877;43.706;10.780;2024-03-06T06:06:09;11.00;96.70
45115;DHT22;30877;43.706;10.780;2024-03-06T06:08:39;11.00;96.70
45115;DHT22;30877;43.706;10.780;2024-03-06T06:11:11;11.10;96.70
45115;DHT22;30877;43.706;10.780;2024-03-06T06:13:40;11.00;96.70
45115;DHT22;30877;43.706;10.780;2024-03-06T06:16:10;11.00;96.70
45115;DHT22;30877;43.706;10.780;2024-03-06T06:18:40;11.00;96.70
45115;DHT22;30877;43.706;10.780;2024-03-06T06:21:10;11.00;96.70
45115;DHT22;30877;43.706;10.780;2024-03-06T06:23:38;10.80;96.70
45115;DHT22;30877;43.706;10.780;2024-03-06T06:26:07;10.80;96.70
45115;DHT22;30877;43.706;10.780;2024-03-06T06:28:43;10.80;96.70
45115;DHT22;30877;43.706;10.780;2024-03-06T06:31:15;10.80;96.70
45115;DHT22;30877;43.706;10.780;2024-03-06T06:33:47;10.90;96.70
45115;DHT22;30877;43.706;10.780;2024-03-06T06:36:15;10.90;96.70
45115;DHT22;30877;43.706;10.780;2024-03-06T06:38:44;11.00;96.70
45115;DHT22;30877;43.706;10.780;2024-03-06T06:41:14;11.00;96.70
45115;DHT22;30877;43.706;10.780;2024-03-06T06:43:46;11.00;96.70
45115;DHT22;30877;43.706;10.780;2024-03-06T06:46:15;10.90;96.70
45115;DHT22;30877;43.706;10.780;2024-03-06T06:48:45;11.00;96.70
45115;DHT22;30877;43.706;10.780;2024-03-06T06:51:16;11.00;96.70
45115;DHT22;30877;43.706;10.780;2024-03-06T06:53:45;11.00;96.70
45115;DHT22;30877;43.706;10.780;2024-03-06T06:56:16;11.00;96.70
45115;DHT22;30877;43.706;10.780;2024-03-06T06:58:47;10.90;96.70
45115;DHT22;30877;43.706;10.780;2024-03-06T07:01:17;10.90;96.70
45115;DHT22;30877;43.706;10.780;2024-03-06T07:03:47;10.60;96.70
45115;DHT22;30877;43.706;10.780;2024-03-06T07:06:17;10.40;96.70
45115;DHT22;30877;43.706;10.780;2024-03-06T07:08:45;10.20;96.70
45115;DHT22;30877;43.706;10.780;2024-03-06T07:11:17;10.10;96.70
45115;DHT22;30877;43.706;10.780;2024-03-06T07:13:49;10.20;96.70
45115;DHT22;30877;43.706;10.780;2024-03-06T07:16:17;10.20;96.70
45115;DHT22;30877;43.706;10.780;2024-03-06T07:18:47;10.30;96.70
45115;DHT22;30877;43.706;10.780;2024-03-06T07:21:19;10.50;96.70
45115;DHT22;30877;43.706;10.780;2024-03-06T07:23:48;10.60;96.70
45115;DHT22;30877;43.706;10.780;2024-03-06T07:26:19;10.70;96.70
45115;DHT22;30877;43.706;10.780;2024-03-06T07:28:50;10.80;96.70
45115;DHT22;30877;43.706;10.780;2024-03-06T07:31:21;10.90;96.70
45115;DHT22;30877;43.706;10.780;2024-03-06T07:33:50;11.00;96.70
45115;DHT22;30877;43.706;10.780;2024-03-06T07:36:20;11.00;96.70
45115;DHT22;30877;43.706;10.780;2024-03-06T07:38:49;11.00;96.70
45115;DHT22;30877;43.706;10.780;2024-03-06T07:41:19;11.10;96.70
45115;DHT22;30877;43.706;10.780;2024-03-06T07:43:50;11.10;96.70
45115;DHT22;30877;43.706;10.780;2024-03-06T07:46:20;11.20;96.70
45115;DHT22;30877;43.706;10.780;2024-03-06T07:48:49;11.20;96.70
45115;DHT22;30877;43.706;10.780;2024-03-06T07:51:19;11.30;96.70
45115;DHT22;30877;43.706;10.780;2024-03-06T07:53:50;11.30;96.70
45115;DHT22;30877;43.706;10.780;2024-03-06T07:56:20;11.40;96.70
45115;DHT22;30877;43.706;10.780;2024-03-06T07:58:53;11.50;96.70
45115;DHT22;30877;43.706;10.780;2024-03-06T08:01:27;11.60;96.70
45115;DHT22;30877;43.706;10.780;2024-03-06T08:03:57;11.60;96.70
45115;DHT22;30877;43.706;10.780;2024-03-06T08:06:26;11.60;96.70
45115;DHT22;30877;43.706;10.780;2024-03-06T08:08:59;11.70;96.70
45115;DHT22;30877;43.706;10.780;2024-03-06T08:11:31;11.70;96.70
45115;DHT22;30877;43.706;10.780;2024-03-06T08:14:06;11.80;96.70
45115;DHT22;30877;43.706;10.780;2024-03-06T08:16:35;11.80;96.70
45115;DHT22;30877;43.706;10.780;2024-03-06T08:19:06;12.00;96.70
45115;DHT22;30877;43.706;10.780;2024-03-06T08:21:38;12.10;96.70
45115;DHT22;30877;43.706;10.780;2024-03-06T08:24:07;12.20;96.70
45115;DHT22;30877;43.706;10.780;2024-03-06T08:26:38;12.30;96.70
45115;DHT22;30877;43.706;10.780;2024-03-06T08:29:10;12.40;96.70
45115;DHT22;30877;43.706;10.780;2024-03-06T08:31:42;12.50;96.70
45115;DHT22;30877;43.706;10.780;2024-03-06T08:34:10;12.60;96.70
45115;DHT22;30877;43.706;10.780;2024-03-06T08:36:43;12.50;96.70
45115;DHT22;30877;43.706;10.780;2024-03-06T08:39:12;12.60;96.70
45115;DHT22;30877;43.706;10.780;2024-03-06T08:41:43;12.60;96.70
45115;DHT22;30877;43.706;10.780;2024-03-06T08:44:14;12.60;96.70
45115;DHT22;30877;43.706;10.780;2024-03-06T08:46:42;12.70;96.70
45115;DHT22;30877;43.706;10.780;2024-03-06T08:49:13;12.80;96.70
45115;DHT22;30877;43.706;10.780;2024-03-06T08:51:43;12.80;96.70
45115;DHT22;30877;43.706;10.780;2024-03-06T08:54:12;12.90;96.70
45115;DHT22;30877;43.706;10.780;2024-03-06T08:56:43;13.00;96.70
45115;DHT22;30877;43.706;10.780;2024-03-06T08:59:15;13.00;96.70
45115;DHT22;30877;43.706;10.780;2024-03-06T09:01:45;12.90;96.70
45115;DHT22;30877;43.706;10.780;2024-03-06T09:04:18;12.80;96.70
45115;DHT22;30877;43.706;10.780;2024-03-06T09:06:49;12.80;96.70
45115;DHT22;30877;43.706;10.780;2024-03-06T09:09:18;12.80;96.70
45115;DHT22;30877;43.706;10.780;2024-03-06T09:11:48;12.80;96.70
45115;DHT22;30877;43.706;10.780;2024-03-06T09:14:20;12.80;96.70
45115;DHT22;30877;43.706;10.780;2024-03-06T09:16:51;12.70;96.70
45115;DHT22;30877;43.706;10.780;2024-03-06T09:19:20;12.60;96.70
45115;DHT22;30877;43.706;10.780;2024-03-06T09:21:50;12.60;96.70
45115;DHT22;30877;43.706;10.780;2024-03-06T09:24:22;12.50;96.70
45115;DHT22;30877;43.706;10.780;2024-03-06T09:26:52;12.50;96.70
45115;DHT22;30877;43.706;10.780;2024-03-06T09:29:22;12.50;96.70
45115;DHT22;30877;43.706;10.780;2024-03-06T09:31:50;12.50;96.70
45115;DHT22;30877;43.706;10.780;2024-03-06T09:34:21;12.40;96.70
45115;DHT22;30877;43.706;10.780;2024-03-06T09:36:50;12.50;96.70
45115;DHT22;30877;43.706;10.780;2024-03-06T09:39:22;12.50;96.70
45115;DHT22;30877;43.706;10.780;2024-03-06T09:41:54;12.60;96.70
45115;DHT22;30877;43.706;10.780;2024-03-06T09:44:26;12.60;96.70
45115;DHT22;30877;43.706;10.780;2024-03-06T09:46:55;12.70;96.70
45115;DHT22;30877;43.706;10.780;2024-03-06T09:49:29;12.80;96.70
45115;DHT22;30877;43.706;10.780;2024-03-06T09:52:02;12.80;96.70
45115;DHT22;30877;43.706;10.780;2024-03-06T09:54:33;13.10;96.70
45115;DHT22;30877;43.706;10.780;2024-03-06T09:57:04;13.40;96.70
45115;DHT22;30877;43.706;10.780;2024-03-06T09:59:36;13.70;96.70
45115;DHT22;30877;43.706;10.780;2024-03-06T10:02:22;13.90;96.70
45115;DHT22;30877;43.706;10.780;2024-03-06T10:04:54;14.10;96.70
45115;DHT22;30877;43.706;10.780;2024-03-06T10:07:26;14.10;96.70
45115;DHT22;30877;43.706;10.780;2024-03-06T10:09:56;14.10;96.70
45115;DHT22;30877;43.706;10.780;2024-03-06T10:12:27;14.10;96.70
45115;DHT22;30877;43.706;10.780;2024-03-06T10:15:02;14.10;96.70
45115;DHT22;30877;43.706;10.780;2024-03-06T10:17:33;13.90;96.70
45115;DHT22;30877;43.706;10.780;2024-03-06T10:20:03;13.90;96.70
45115;DHT22;30877;43.706;10.780;2024-03-06T10:22:46;13.90;96.70
45115;DHT22;30877;43.706;10.780;2024-03-06T10:25:18;13.90;96.70
45115;DHT22;30877;43.706;10.780;2024-03-06T10:28:06;13.70;96.70
45115;DHT22;30877;43.706;10.780;2024-03-06T10:30:41;13.60;96.70
45115;DHT22;30877;43.706;10.780;2024-03-06T10:33:12;13.70;96.70
45115;DHT22;30877;43.706;10.780;2024-03-06T10:35:43;13.80;96.70
45115;DHT22;30877;43.706;10.780;2024-03-06T10:38:13;13.90;96.70
45115;DHT22;30877;43.706;10.780;2024-03-06T10:40:45;14.00;96.70
45115;DHT22;30877;43.706;10.780;2024-03-06T10:43:15;14.30;96.70
45115;DHT22;30877;43.706;10.780;2024-03-06T10:45:48;14.60;96.70
45115;DHT22;30877;43.706;10.780;2024-03-06T10:48:18;14.70;96.70
45115;DHT22;30877;43.706;10.780;2024-03-06T10:50:49;14.70;96.70
45115;DHT22;30877;43.706;10.780;2024-03-06T10:53:18;14.90;96.70
45115;DHT22;30877;43.706;10.780;2024-03-06T10:55:51;15.00;96.70
45115;DHT22;30877;43.706;10.780;2024-03-06T10:58:20;15.10;96.70
45115;DHT22;30877;43.706;10.780;2024-03-06T11:00:55;15.20;96.70
45115;DHT22;30877;43.706;10.780;2024-03-06T11:03:27;15.20;96.70
45115;DHT22;30877;43.706;10.780;2024-03-06T11:05:59;15.10;96.70
45115;DHT22;30877;43.706;10.780;2024-03-06T11:08:32;14.90;96.70
45115;DHT22;30877;43.706;10.780;2024-03-06T11:11:23;14.80;96.70
45115;DHT22;30877;43.706;10.780;2024-03-06T11:14:00;14.70;96.70
45115;DHT22;30877;43.706;10.780;2024-03-06T11:16:33;14.70;96.70
45115;DHT22;30877;43.706;10.780;2024-03-06T11:19:22;14.70;96.70
45115;DHT22;30877;43.706;10.780;2024-03-06T11:21:51;14.80;96.70
45115;DHT22;30877;43.706;10.780;2024-03-06T11:24:21;14.90;96.70
45115;DHT22;30877;43.706;10.780;2024-03-06T11:27:00;14.70;96.70
45115;DHT22;30877;43.706;10.780;2024-03-06T11:30:03;14.70;96.70
45115;DHT22;30877;43.706;10.780;2024-03-06T11:32:59;14.70;96.70
45115;DHT22;30877;43.706;10.780;2024-03-06T11:35:29;14.80;96.70
45115;DHT22;30877;43.706;10.780;2024-03-06T11:38:00;14.80;96.70
45115;DHT22;30877;43.706;10.780;2024-03-06T11:40:29;14.70;96.70
45115;DHT22;30877;43.706;10.780;2024-03-06T11:43:24;14.90;96.70
45115;DHT22;30877;43.706;10.780;2024-03-06T11:45:53;15.10;96.70
45115;DHT22;30877;43.706;10.780;2024-03-06T11:48:23;15.30;96.70
45115;DHT22;30877;43.706;10.780;2024-03-06T11:50:53;15.40;96.70
45115;DHT22;30877;43.706;10.780;2024-03-06T11:53:22;15.50;96.70
45115;DHT22;30877;43.706;10.780;2024-03-06T11:55:54;15.50;96.70
45115;DHT22;30877;43.706;10.780;2024-03-06T11:58:25;15.40;96.70
45115;DHT22;30877;43.706;10.780;2024-03-06T12:00:54;15.50;96.70
45115;DHT22;30877;43.706;10.780;2024-03-06T12:03:24;15.70;96.70
45115;DHT22;30877;43.706;10.780;2024-03-06T12:05:55;16.10;96.70
45115;DHT22;30877;43.706;10.780;2024-03-06T12:08:23;16.20;96.70
45115;DHT22;30877;43.706;10.780;2024-03-06T12:10:52;16.60;96.70
45115;DHT22;30877;43.706;10.780;2024-03-06T12:13:23;16.80;96.70
45115;DHT22;30877;43.706;10.780;2024-03-06T12:15:52;17.00;96.70
45115;DHT22;30877;43.706;10.780;2024-03-06T12:18:21;17.30;96.70
45115;DHT22;30877;43.706;10.780;2024-03-06T12:20:53;17.20;96.70
45115;DHT22;30877;43.706;10.780;2024-03-06T12:23:21;17.00;96.70
45115;DHT22;30877;43.706;10.780;2024-03-06T12:26:04;16.70;96.70
45115;DHT22;30877;43.706;10.780;2024-03-06T12:28:34;16.30;96.70
45115;DHT22;30877;43.706;10.780;2024-03-06T12:31:05;16.00;96.70
45115;DHT22;30877;43.706;10.780;2024-03-06T12:33:35;16.30;96.70
45115;DHT22;30877;43.706;10.780;2024-03-06T12:36:07;16.50;96.70
45115;DHT22;30877;43.706;10.780;2024-03-06T12:38:39;16.80;96.70
45115;DHT22;30877;43.706;10.780;2024-03-06T12:41:07;17.00;96.70
45115;DHT22;30877;43.706;10.780;2024-03-06T12:43:35;16.90;96.70
45115;DHT22;30877;43.706;10.780;2024-03-06T12:46:04;16.80;96.70
45115;DHT22;30877;43.706;10.780;2024-03-06T12:48:33;16.70;96.70
45115;DHT22;30877;43.706;10.780;2024-03-06T12:51:02;16.50;96.70
45115;DHT22;30877;43.706;10.780;2024-03-06T12:53:35;16.40;96.70
45115;DHT22;30877;43.706;10.780;2024-03-06T12:56:05;16.30;96.70
45115;DHT22;30877;43.706;10.780;2024-03-06T12:58:34;16.30;96.70
45115;DHT22;30877;43.706;10.780;2024-03-06T13:01:04;16.50;96.70
45115;DHT22;30877;43.706;10.780;2024-03-06T13:03:33;17.10;96.70
45115;DHT22;30877;43.706;10.780;2024-03-06T13:06:05;17.60;96.70
45115;DHT22;30877;43.706;10.780;2024-03-06T13:08:38;17.50;96.70
45115;DHT22;30877;43.706;10.780;2024-03-06T13:11:08;17.30;96.70
45115;DHT22;30877;43.706;10.780;2024-03-06T13:13:38;17.10;96.70
45115;DHT22;30877;43.706;10.780;2024-03-06T13:16:07;17.50;96.70
45115;DHT22;30877;43.706;10.780;2024-03-06T13:18:41;17.80;96.70
45115;DHT22;30877;43.706;10.780;2024-03-06T13:21:10;17.80;96.70
45115;DHT22;30877;43.706;10.780;2024-03-06T13:23:42;17.40;96.70
45115;DHT22;30877;43.706;10.780;2024-03-06T13:26:12;17.50;96.70
45115;DHT22;30877;43.706;10.780;2024-03-06T13:28:42;17.90;96.70
45115;DHT22;30877;43.706;10.780;2024-03-06T13:31:11;17.90;96.70
45115;DHT22;30877;43.706;10.780;2024-03-06T13:33:42;17.80;96.70
45115;DHT22;30877;43.706;10.780;2024-03-06T13:36:12;17.40;96.70
45115;DHT22;30877;43.706;10.780;2024-03-06T13:38:43;17.00;96.70
45115;DHT22;30877;43.706;10.780;2024-03-06T13:41:12;16.80;96.70
45115;DHT22;30877;43.706;10.780;2024-03-06T13:43:41;16.70;96.70
45115;DHT22;30877;43.706;10.780;2024-03-06T13:46:11;16.50;96.70
45115;DHT22;30877;43.706;10.780;2024-03-06T13:48:41;16.40;96.70
45115;DHT22;30877;43.706;10.780;2024-03-06T13:51:10;16.10;96.70
45115;DHT22;30877;43.706;10.780;2024-03-06T13:53:39;16.00;96.70
45115;DHT22;30877;43.706;10.780;2024-03-06T13:56:09;15.90;96.70
45115;DHT22;30877;43.706;10.780;2024-03-06T13:58:40;15.80;96.70
45115;DHT22;30877;43.706;10.780;2024-03-06T14:01:10;15.80;96.70
45115;DHT22;30877;43.706;10.780;2024-03-06T14:03:39;15.90;96.70
45115;DHT22;30877;43.706;10.780;2024-03-06T14:06:08;15.90;96.70
45115;DHT22;30877;43.706;10.780;2024-03-06T14:08:39;15.90;96.70
45115;DHT22;30877;43.706;10.780;2024-03-06T14:11:11;15.90;96.70
45115;DHT22;30877;43.706;10.780;2024-03-06T14:13:42;15.80;96.70
45115;DHT22;30877;43.706;10.780;2024-03-06T14:16:11;15.80;96.70
45115;DHT22;30877;43.706;10.780;2024-03-06T14:18:42;15.70;96.70
45115;DHT22;30877;43.706;10.780;2024-03-06T14:21:12;15.70;96.70
45115;DHT22;30877;43.706;10.780;2024-03-06T14:23:42;15.60;96.70
45115;DHT22;30877;43.706;10.780;2024-03-06T14:26:14;15.40;96.70
45115;DHT22;30877;43.706;10.780;2024-03-06T14:28:44;15.40;96.70
45115;DHT22;30877;43.706;10.780;2024-03-06T14:31:14;15.50;96.70
45115;DHT22;30877;43.706;10.780;2024-03-06T14:33:44;15.60;96.70
45115;DHT22;30877;43.706;10.780;2024-03-06T14:36:16;15.50;96.70
45115;DHT22;30877;43.706;10.780;2024-03-06T14:38:47;15.40;96.70
45115;DHT22;30877;43.706;10.780;2024-03-06T14:41:19;15.50;96.70
45115;DHT22;30877;43.706;10.780;2024-03-06T14:43:49;15.70;96.70
45115;DHT22;30877;43.706;10.780;2024-03-06T14:46:20;16.00;96.70
45115;DHT22;30877;43.706;10.780;2024-03-06T14:48:49;16.50;96.70
45115;DHT22;30877;43.706;10.780;2024-03-06T14:51:18;16.90;96.70
45115;DHT22;30877;43.706;10.780;2024-03-06T14:53:47;17.20;96.70
45115;DHT22;30877;43.706;10.780;2024-03-06T14:56:17;17.30;96.70
45115;DHT22;30877;43.706;10.780;2024-03-06T14:58:50;17.60;96.70
45115;DHT22;30877;43.706;10.780;2024-03-06T15:01:20;18.10;96.70
45115;DHT22;30877;43.706;10.780;2024-03-06T15:03:52;18.50;96.70
45115;DHT22;30877;43.706;10.780;2024-03-06T15:06:22;18.80;96.70
45115;DHT22;30877;43.706;10.780;2024-03-06T15:08:53;19.00;96.70
45115;DHT22;30877;43.706;10.780;2024-03-06T15:11:27;19.20;96.70
45115;DHT22;30877;43.706;10.780;2024-03-06T15:14:01;19.50;96.70
45115;DHT22;30877;43.706;10.780;2024-03-06T15:16:32;19.50;96.70
45115;DHT22;30877;43.706;10.780;2024-03-06T15:19:01;19.60;96.70
45115;DHT22;30877;43.706;10.780;2024-03-06T15:21:32;19.50;96.70
45115;DHT22;30877;43.706;10.780;2024-03-06T15:24:03;18.90;96.70
45115;DHT22;30877;43.706;10.780;2024-03-06T15:26:37;17.80;96.70
45115;DHT22;30877;43.706;10.780;2024-03-06T15:29:08;16.80;96.70
45115;DHT22;30877;43.706;10.780;2024-03-06T15:31:38;16.20;96.70
45115;DHT22;30877;43.706;10.780;2024-03-06T15:34:08;15.70;96.70
45115;DHT22;30877;43.706;10.780;2024-03-06T15:36:39;15.30;96.70
45115;DHT22;30877;43.706;10.780;2024-03-06T15:39:11;15.20;96.70
45115;DHT22;30877;43.706;10.780;2024-03-06T15:41:43;15.10;96.70